sensor_id;sensor_type;location;lat;lon;timestamp;pressure;altitude;pressure_sealevel;temperature;humidity
70745;BME280;59284;31.390;34.904;2022-09-09T00:00:41;93845.22;;;20.72;100.00
70745;BME280;59284;31.390;34.904;2022-09-09T00:03:27;93852.00;;;20.77;100.00
70745;BME280;59284;31.390;34.904;2022-09-09T00:06:02;93866.28;;;20.72;100.00
70745;BME280;59284;31.390;34.904;2022-09-09T00:08:44;93869.69;;;20.69;100.00
70745;BME280;59284;31.390;34.904;2022-09-09T00:11:13;93860.63;;;20.63;100.00
70745;BME280;59284;31.390;34.904;2022-09-09T00:13:49;93861.78;;;20.73;100.00
70745;BME280;59284;31.390;34.904;2022-09-09T00:16:28;93869.31;;;20.67;100.00
70745;BME280;59284;31.390;34.904;2022-09-09T00:21:46;93870.41;;;20.52;100.00
70745;BME280;59284;31.390;34.904;2022-09-09T00:26:49;93865.50;;;20.51;100.00
70745;BME280;59284;31.390;34.904;2022-09-09T00:32:15;93870.44;;;20.56;100.00
70745;BME280;59284;31.390;34.904;2022-09-09T00:34:54;93882.06;;;20.58;100.00
70745;BME280;59284;31.390;34.904;2022-09-09T00:37:24;93873.81;;;20.60;100.00
70745;BME280;59284;31.390;34.904;2022-09-09T00:39:56;93871.16;;;20.53;100.00
70745;BME280;59284;31.390;34.904;2022-09-09T00:42:25;93871.53;;;20.51;100.00
70745;BME280;59284;31.390;34.904;2022-09-09T00:47:47;93876.41;;;20.46;100.00
70745;BME280;59284;31.390;34.904;2022-09-09T00:50:34;93883.53;;;20.38;100.00
70745;BME280;59284;31.390;34.904;2022-09-09T00:58:25;93879.03;;;20.39;100.00
70745;BME280;59284;31.390;34.904;2022-09-09T01:00:57;93872.63;;;20.33;100.00
70745;BME280;59284;31.390;34.904;2022-09-09T01:03:55;93863.56;;;20.34;100.00
70745;BME280;59284;31.390;34.904;2022-09-09T01:06:35;93848.94;;;20.43;100.00
70745;BME280;59284;31.390;34.904;2022-09-09T01:09:18;93834.22;;;20.28;100.00
70745;BME280;59284;31.390;34.904;2022-09-09T01:12:11;93820.66;;;20.29;100.00
70745;BME280;59284;31.390;34.904;2022-09-09T01:14:48;93807.47;;;20.22;100.00
70745;BME280;59284;31.390;34.904;2022-09-09T01:17:24;93791.28;;;20.20;100.00
70745;BME280;59284;31.390;34.904;2022-09-09T01:27:48;93753.31;;;20.43;100.00
70745;BME280;59284;31.390;34.904;2022-09-09T01:30:17;93745.44;;;20.50;100.00
70745;BME280;59284;31.390;34.904;2022-09-09T01:32:49;93745.06;;;20.48;100.00
70745;BME280;59284;31.390;34.904;2022-09-09T01:38:08;93748.06;;;20.50;100.00
70745;BME280;59284;31.390;34.904;2022-09-09T01:40:34;93737.91;;;20.41;100.00
70745;BME280;59284;31.390;34.904;2022-09-09T01:43:00;93741.69;;;20.44;100.00
70745;BME280;59284;31.390;34.904;2022-09-09T01:45:26;93740.16;;;20.43;100.00
70745;BME280;59284;31.390;34.904;2022-09-09T01:47:52;93734.53;;;20.44;100.00
70745;BME280;59284;31.390;34.904;2022-09-09T01:50:19;93723.97;;;20.48;100.00
70745;BME280;59284;31.390;34.904;2022-09-09T01:52:47;93746.56;;;20.35;100.00
70745;BME280;59284;31.390;34.904;2022-09-09T01:55:15;93744.69;;;20.39;100.00
70745;BME280;59284;31.390;34.904;2022-09-09T02:00:13;93752.19;;;20.33;100.00
70745;BME280;59284;31.390;34.904;2022-09-09T02:03:07;93760.47;;;20.32;100.00
70745;BME280;59284;31.390;34.904;2022-09-09T02:05:44;93774.38;;;20.36;100.00
70745;BME280;59284;31.390;34.904;2022-09-09T02:08:19;93780.03;;;20.23;100.00
70745;BME280;59284;31.390;34.904;2022-09-09T02:11:03;93778.94;;;20.35;100.00
70745;BME280;59284;31.390;34.904;2022-09-09T02:13:32;93764.59;;;20.22;100.00
70745;BME280;59284;31.390;34.904;2022-09-09T02:21:06;93791.28;;;20.20;100.00
70745;BME280;59284;31.390;34.904;2022-09-09T02:23:34;93807.44;;;20.19;100.00
70745;BME280;59284;31.390;34.904;2022-09-09T02:26:01;93810.13;;;20.33;100.00
70745;BME280;59284;31.390;34.904;2022-09-09T02:28:29;93822.53;;;20.29;100.00
70745;BME280;59284;31.390;34.904;2022-09-09T02:30:57;93841.66;;;20.15;100.00
70745;BME280;59284;31.390;34.904;2022-09-09T02:33:28;93852.25;;;20.22;100.00
70745;BME280;59284;31.390;34.904;2022-09-09T02:35:56;93859.41;;;20.25;100.00
70745;BME280;59284;31.390;34.904;2022-09-09T02:38:29;93857.16;;;20.27;100.00
70745;BME280;59284;31.390;34.904;2022-09-09T02:41:02;93857.91;;;20.24;100.00
70745;BME280;59284;31.390;34.904;2022-09-09T02:43:34;93872.56;;;20.22;100.00
70745;BME280;59284;31.390;34.904;2022-09-09T02:49:02;93906.06;;;20.28;100.00
70745;BME280;59284;31.390;34.904;2022-09-09T02:54:31;93950.88;;;20.32;100.00
70745;BME280;59284;31.390;34.904;2022-09-09T02:57:10;93972.69;;;20.33;100.00
70745;BME280;59284;31.390;34.904;2022-09-09T02:59:36;93986.22;;;20.27;100.00
70745;BME280;59284;31.390;34.904;2022-09-09T03:02:02;93995.59;;;20.25;100.00
70745;BME280;59284;31.390;34.904;2022-09-09T03:04:28;93999.75;;;20.26;100.00
70745;BME280;59284;31.390;34.904;2022-09-09T03:06:55;94008.75;;;20.21;100.00
70745;BME280;59284;31.390;34.904;2022-09-09T03:09:21;94013.59;;;20.19;100.00
70745;BME280;59284;31.390;34.904;2022-09-09T03:11:46;94018.16;;;20.26;100.00
70745;BME280;59284;31.390;34.904;2022-09-09T03:14:12;94012.94;;;20.29;100.00
70745;BME280;59284;31.390;34.904;2022-09-09T03:16:38;94006.16;;;20.25;100.00
70745;BME280;59284;31.390;34.904;2022-09-09T03:19:04;94027.59;;;20.23;100.00
70745;BME280;59284;31.390;34.904;2022-09-09T03:21:29;94020.81;;;20.26;100.00
70745;BME280;59284;31.390;34.904;2022-09-09T03:23:55;94019.63;;;20.16;100.00
70745;BME280;59284;31.390;34.904;2022-09-09T03:26:21;94008.09;;;20.35;100.00
70745;BME280;59284;31.390;34.904;2022-09-09T03:28:47;93997.09;;;20.22;100.00
70745;BME280;59284;31.390;34.904;2022-09-09T03:31:12;94000.78;;;20.14;100.00
70745;BME280;59284;31.390;34.904;2022-09-09T03:33:38;94020.28;;;20.10;100.00
70745;BME280;59284;31.390;34.904;2022-09-09T03:36:06;94037.28;;;20.19;100.00
70745;BME280;59284;31.390;34.904;2022-09-09T03:38:33;94045.97;;;20.20;100.00
70745;BME280;59284;31.390;34.904;2022-09-09T03:41:00;94059.78;;;20.10;100.00
70745;BME280;59284;31.390;34.904;2022-09-09T03:43:28;94072.28;;;20.20;100.00
70745;BME280;59284;31.390;34.904;2022-09-09T04:54:00;93624.50;;;22.43;100.00
70745;BME280;59284;31.390;34.904;2022-09-09T04:56:26;93539.03;;;22.60;100.00
70745;BME280;59284;31.390;34.904;2022-09-09T04:58:52;93517.84;;;22.63;100.00
70745;BME280;59284;31.390;34.904;2022-09-09T05:01:20;93535.94;;;22.68;100.00
70745;BME280;59284;31.390;34.904;2022-09-09T05:03:50;93559.03;;;22.64;100.00
70745;BME280;59284;31.390;34.904;2022-09-09T05:06:19;93568.00;;;22.74;100.00
70745;BME280;59284;31.390;34.904;2022-09-09T05:08:45;93586.22;;;22.98;100.00
70745;BME280;59284;31.390;34.904;2022-09-09T05:11:17;93612.13;;;23.14;100.00
70745;BME280;59284;31.390;34.904;2022-09-09T05:13:44;93633.81;;;23.32;100.00
70745;BME280;59284;31.390;34.904;2022-09-09T05:16:11;93664.41;;;23.40;100.00
70745;BME280;59284;31.390;34.904;2022-09-09T05:18:40;93674.50;;;23.49;100.00
70745;BME280;59284;31.390;34.904;2022-09-09T05:21:07;93679.41;;;23.50;100.00
70745;BME280;59284;31.390;34.904;2022-09-09T05:23:34;93674.56;;;23.76;100.00
70745;BME280;59284;31.390;34.904;2022-09-09T05:26:02;93674.50;;;23.79;100.00
70745;BME280;59284;31.390;34.904;2022-09-09T05:28:28;93671.16;;;23.75;100.00
70745;BME280;59284;31.390;34.904;2022-09-09T05:31:00;93670.47;;;23.98;100.00
70745;BME280;59284;31.390;34.904;2022-09-09T05:33:27;93681.91;;;23.91;100.00
70745;BME280;59284;31.390;34.904;2022-09-09T05:35:57;93683.22;;;24.10;100.00
70745;BME280;59284;31.390;34.904;2022-09-09T05:38:23;93692.25;;;24.12;100.00
70745;BME280;59284;31.390;34.904;2022-09-09T05:40:52;93702.75;;;24.19;100.00
70745;BME280;59284;31.390;34.904;2022-09-09T05:43:19;93714.84;;;24.20;100.00
70745;BME280;59284;31.390;34.904;2022-09-09T05:45:48;93723.91;;;24.50;100.00
70745;BME280;59284;31.390;34.904;2022-09-09T05:48:14;93685.41;;;24.65;100.00
70745;BME280;59284;31.390;34.904;2022-09-09T05:50:43;93690.47;;;24.56;100.00
70745;BME280;59284;31.390;34.904;2022-09-09T05:53:10;93691.06;;;24.67;100.00
70745;BME280;59284;31.390;34.904;2022-09-09T05:55:36;93722.34;;;24.75;100.00
70745;BME280;59284;31.390;34.904;2022-09-09T05:58:02;93719.53;;;24.63;100.00
70745;BME280;59284;31.390;34.904;2022-09-09T06:00:29;93718.03;;;24.62;100.00
70745;BME280;59284;31.390;34.904;2022-09-09T06:02:56;93740.66;;;24.70;100.00
70745;BME280;59284;31.390;34.904;2022-09-09T06:05:22;93796.53;;;25.32;100.00
70745;BME280;59284;31.390;34.904;2022-09-09T06:07:52;93790.16;;;25.03;100.00
70745;BME280;59284;31.390;34.904;2022-09-09T06:10:18;93784.41;;;25.31;100.00
70745;BME280;59284;31.390;34.904;2022-09-09T06:12:44;93811.84;;;25.21;100.00
70745;BME280;59284;31.390;34.904;2022-09-09T06:15:10;93843.56;;;25.32;100.00
70745;BME280;59284;31.390;34.904;2022-09-09T06:17:35;93837.72;;;25.17;100.00
70745;BME280;59284;31.390;34.904;2022-09-09T06:20:02;93836.81;;;25.27;100.00
70745;BME280;59284;31.390;34.904;2022-09-09T06:22:28;93857.25;;;25.30;100.00
70745;BME280;59284;31.390;34.904;2022-09-09T06:24:53;93857.97;;;25.31;100.00
70745;BME280;59284;31.390;34.904;2022-09-09T06:27:19;93862.94;;;25.55;100.00
70745;BME280;59284;31.390;34.904;2022-09-09T06:29:45;93862.34;;;25.44;100.00
70745;BME280;59284;31.390;34.904;2022-09-09T06:32:10;93873.75;;;25.88;100.00
70745;BME280;59284;31.390;34.904;2022-09-09T06:34:36;93881.50;;;26.21;100.00
70745;BME280;59284;31.390;34.904;2022-09-09T06:37:02;93912.84;;;26.10;100.00
70745;BME280;59284;31.390;34.904;2022-09-09T06:39:27;94524.22;;;26.17;100.00
70745;BME280;59284;31.390;34.904;2022-09-09T06:41:54;94821.31;;;25.99;100.00
70745;BME280;59284;31.390;34.904;2022-09-09T06:44:19;94852.72;;;26.32;100.00
70745;BME280;59284;31.390;34.904;2022-09-09T06:46:45;94846.91;;;26.55;100.00
70745;BME280;59284;31.390;34.904;2022-09-09T06:49:13;94847.09;;;26.20;100.00
70745;BME280;59284;31.390;34.904;2022-09-09T06:51:39;94856.66;;;26.86;100.00
70745;BME280;59284;31.390;34.904;2022-09-09T06:54:09;94862.63;;;27.04;100.00
70745;BME280;59284;31.390;34.904;2022-09-09T06:56:37;94871.69;;;27.10;100.00
70745;BME280;59284;31.390;34.904;2022-09-09T06:59:06;94874.34;;;27.10;100.00
70745;BME280;59284;31.390;34.904;2022-09-09T07:01:35;94878.91;;;27.13;100.00
70745;BME280;59284;31.390;34.904;2022-09-09T07:04:02;94880.66;;;26.79;100.00
70745;BME280;59284;31.390;34.904;2022-09-09T07:06:31;94902.78;;;28.16;100.00
70745;BME280;59284;31.390;34.904;2022-09-09T07:08:59;94905.69;;;27.51;100.00
70745;BME280;59284;31.390;34.904;2022-09-09T07:11:29;94882.84;;;28.28;100.00
70745;BME280;59284;31.390;34.904;2022-09-09T07:13:57;94869.97;;;27.41;100.00
70745;BME280;59284;31.390;34.904;2022-09-09T07:16:24;94883.16;;;27.96;100.00
70745;BME280;59284;31.390;34.904;2022-09-09T07:18:50;94878.31;;;27.84;100.00
70745;BME280;59284;31.390;34.904;2022-09-09T07:21:17;94872.56;;;27.89;100.00
70745;BME280;59284;31.390;34.904;2022-09-09T07:23:43;94880.59;;;28.23;100.00
70745;BME280;59284;31.390;34.904;2022-09-09T07:26:14;94885.88;;;28.64;100.00
70745;BME280;59284;31.390;34.904;2022-09-09T07:28:40;94886.53;;;28.37;100.00
70745;BME280;59284;31.390;34.904;2022-09-09T07:31:08;94894.34;;;28.85;100.00
70745;BME280;59284;31.390;34.904;2022-09-09T07:33:39;94893.97;;;28.53;100.00
70745;BME280;59284;31.390;34.904;2022-09-09T07:38:43;94890.72;;;28.99;100.00
70745;BME280;59284;31.390;34.904;2022-09-09T07:41:15;94869.16;;;28.26;100.00
70745;BME280;59284;31.390;34.904;2022-09-09T07:43:43;94874.94;;;29.08;100.00
70745;BME280;59284;31.390;34.904;2022-09-09T07:46:11;94881.31;;;29.44;100.00
70745;BME280;59284;31.390;34.904;2022-09-09T07:48:44;94878.97;;;29.69;100.00
70745;BME280;59284;31.390;34.904;2022-09-09T07:51:15;94874.63;;;29.56;100.00
70745;BME280;59284;31.390;34.904;2022-09-09T07:53:46;94880.53;;;28.94;100.00
70745;BME280;59284;31.390;34.904;2022-09-09T07:56:16;94883.69;;;29.62;100.00
70745;BME280;59284;31.390;34.904;2022-09-09T07:58:45;94882.59;;;29.82;100.00
70745;BME280;59284;31.390;34.904;2022-09-09T08:01:17;94878.28;;;29.88;100.00
70745;BME280;59284;31.390;34.904;2022-09-09T08:03:44;94869.28;;;29.56;100.00
70745;BME280;59284;31.390;34.904;2022-09-09T08:06:10;94875.53;;;29.92;100.00
70745;BME280;59284;31.390;34.904;2022-09-09T08:08:38;94872.53;;;30.10;100.00
70745;BME280;59284;31.390;34.904;2022-09-09T08:11:10;94876.81;;;30.66;100.00
70745;BME280;59284;31.390;34.904;2022-09-09T08:13:37;94861.19;;;29.82;100.00
70745;BME280;59284;31.390;34.904;2022-09-09T08:16:10;94869.56;;;29.84;100.00
70745;BME280;59284;31.390;34.904;2022-09-09T08:18:40;94878.88;;;30.59;100.00
70745;BME280;59284;31.390;34.904;2022-09-09T08:21:13;94867.59;;;30.28;100.00
70745;BME280;59284;31.390;34.904;2022-09-09T08:23:43;94873.66;;;30.32;100.00
70745;BME280;59284;31.390;34.904;2022-09-09T08:26:21;94878.91;;;30.75;100.00
70745;BME280;59284;31.390;34.904;2022-09-09T08:28:51;94874.31;;;31.11;100.00
70745;BME280;59284;31.390;34.904;2022-09-09T08:31:23;94861.56;;;30.24;100.00
70745;BME280;59284;31.390;34.904;2022-09-09T08:33:49;94867.78;;;30.76;100.00
70745;BME280;59284;31.390;34.904;2022-09-09T08:36:19;94862.66;;;31.17;100.00
70745;BME280;59284;31.390;34.904;2022-09-09T08:38:50;94868.16;;;30.59;100.00
70745;BME280;59284;31.390;34.904;2022-09-09T08:52:27;94863.75;;;31.04;100.00
70745;BME280;59284;31.390;34.904;2022-09-09T08:55:24;94851.44;;;31.22;100.00
70745;BME280;59284;31.390;34.904;2022-09-09T08:57:54;94861.91;;;32.80;100.00
70745;BME280;59284;31.390;34.904;2022-09-09T09:00:22;94862.88;;;32.04;100.00
70745;BME280;59284;31.390;34.904;2022-09-09T09:05:36;94853.22;;;32.47;100.00
70745;BME280;59284;31.390;34.904;2022-09-09T09:13:19;94841.75;;;31.89;100.00
70745;BME280;59284;31.390;34.904;2022-09-09T09:15:59;94828.66;;;31.91;100.00
70745;BME280;59284;31.390;34.904;2022-09-09T09:18:28;94832.28;;;31.40;100.00
70745;BME280;59284;31.390;34.904;2022-09-09T09:23:24;94825.31;;;33.80;100.00
70745;BME280;59284;31.390;34.904;2022-09-09T09:25:56;94824.72;;;33.98;100.00
70745;BME280;59284;31.390;34.904;2022-09-09T09:28:29;94826.16;;;33.55;100.00
70745;BME280;59284;31.390;34.904;2022-09-09T09:31:00;94821.59;;;34.64;100.00
70745;BME280;59284;31.390;34.904;2022-09-09T09:33:33;94821.06;;;33.91;100.00
70745;BME280;59284;31.390;34.904;2022-09-09T09:35:59;94817.88;;;35.01;100.00
70745;BME280;59284;31.390;34.904;2022-09-09T09:38:28;94815.47;;;35.88;100.00
70745;BME280;59284;31.390;34.904;2022-09-09T09:40:58;94816.59;;;34.93;100.00
70745;BME280;59284;31.390;34.904;2022-09-09T09:43:39;94819.22;;;36.18;100.00
70745;BME280;59284;31.390;34.904;2022-09-09T09:46:19;94807.66;;;35.54;100.00
70745;BME280;59284;31.390;34.904;2022-09-09T09:48:56;94821.41;;;36.56;100.00
70745;BME280;59284;31.390;34.904;2022-09-09T09:51:23;94810.75;;;36.52;100.00
70745;BME280;59284;31.390;34.904;2022-09-09T09:53:49;94802.38;;;36.83;100.00
70745;BME280;59284;31.390;34.904;2022-09-09T09:56:26;94799.72;;;36.05;100.00
70745;BME280;59284;31.390;34.904;2022-09-09T09:58:55;94797.44;;;36.31;100.00
70745;BME280;59284;31.390;34.904;2022-09-09T10:01:22;94801.91;;;36.34;100.00
70745;BME280;59284;31.390;34.904;2022-09-09T10:04:13;94797.56;;;37.20;100.00
70745;BME280;59284;31.390;34.904;2022-09-09T10:06:40;94790.88;;;35.68;100.00
70745;BME280;59284;31.390;34.904;2022-09-09T10:09:28;94786.97;;;35.60;100.00
70745;BME280;59284;31.390;34.904;2022-09-09T10:12:17;94792.91;;;37.20;100.00
70745;BME280;59284;31.390;34.904;2022-09-09T10:28:53;94784.41;;;38.57;100.00
70745;BME280;59284;31.390;34.904;2022-09-09T10:37:16;94766.06;;;38.81;100.00
70745;BME280;59284;31.390;34.904;2022-09-09T10:39:44;94767.78;;;38.06;100.00
70745;BME280;59284;31.390;34.904;2022-09-09T10:42:14;94764.00;;;37.03;100.00
70745;BME280;59284;31.390;34.904;2022-09-09T10:45:22;94758.38;;;38.80;100.00
70745;BME280;59284;31.390;34.904;2022-09-09T10:54:30;94758.31;;;37.86;100.00
70745;BME280;59284;31.390;34.904;2022-09-09T10:56:23;94774.22;;;39.01;100.00
70745;BME280;59284;31.390;34.904;2022-09-09T10:59:17;94764.38;;;39.39;100.00
70745;BME280;59284;31.390;34.904;2022-09-09T11:01:56;94762.69;;;42.41;100.00
70745;BME280;59284;31.390;34.904;2022-09-09T11:06:52;94756.56;;;38.91;100.00
70745;BME280;59284;31.390;34.904;2022-09-09T11:09:26;94765.41;;;42.13;100.00
70745;BME280;59284;31.390;34.904;2022-09-09T11:11:57;94772.00;;;41.79;100.00
70745;BME280;59284;31.390;34.904;2022-09-09T11:14:33;94756.84;;;40.77;100.00
70745;BME280;59284;31.390;34.904;2022-09-09T11:17:10;94753.81;;;41.06;100.00
70745;BME280;59284;31.390;34.904;2022-09-09T11:19:41;94767.00;;;44.36;100.00
70745;BME280;59284;31.390;34.904;2022-09-09T11:25:06;94742.53;;;40.82;100.00
70745;BME280;59284;31.390;34.904;2022-09-09T11:27:39;94742.97;;;40.12;100.00
70745;BME280;59284;31.390;34.904;2022-09-09T11:30:20;94750.53;;;41.39;100.00
70745;BME280;59284;31.390;34.904;2022-09-09T11:38:27;94734.66;;;42.35;100.00
70745;BME280;59284;31.390;34.904;2022-09-09T11:41:03;94745.97;;;43.27;100.00
70745;BME280;59284;31.390;34.904;2022-09-09T11:43:38;94745.94;;;41.72;100.00
70745;BME280;59284;31.390;34.904;2022-09-09T11:46:06;94733.38;;;43.08;100.00
70745;BME280;59284;31.390;34.904;2022-09-09T11:48:38;94738.56;;;40.46;100.00
70745;BME280;59284;31.390;34.904;2022-09-09T11:51:08;94730.16;;;41.98;100.00
70745;BME280;59284;31.390;34.904;2022-09-09T11:53:35;94738.28;;;41.71;100.00
70745;BME280;59284;31.390;34.904;2022-09-09T11:56:05;94740.34;;;42.87;100.00
70745;BME280;59284;31.390;34.904;2022-09-09T11:58:37;94730.81;;;41.66;100.00
70745;BME280;59284;31.390;34.904;2022-09-09T12:01:13;94716.69;;;40.60;100.00
70745;BME280;59284;31.390;34.904;2022-09-09T12:03:48;94721.19;;;40.69;100.00
70745;BME280;59284;31.390;34.904;2022-09-09T12:06:25;94744.09;;;45.23;88.24
70745;BME280;59284;31.390;34.904;2022-09-09T12:08:57;94722.84;;;40.30;100.00
70745;BME280;59284;31.390;34.904;2022-09-09T12:11:28;94713.81;;;40.81;100.00
70745;BME280;59284;31.390;34.904;2022-09-09T12:13:58;94714.09;;;42.34;100.00
70745;BME280;59284;31.390;34.904;2022-09-09T12:16:34;94719.53;;;42.45;95.92
70745;BME280;59284;31.390;34.904;2022-09-09T12:19:26;94724.00;;;44.37;88.09
70745;BME280;59284;31.390;34.904;2022-09-09T12:22:06;94721.28;;;42.20;94.97
70745;BME280;59284;31.390;34.904;2022-09-09T12:25:03;94704.41;;;40.39;96.86
70745;BME280;59284;31.390;34.904;2022-09-09T12:28:02;94713.84;;;40.44;96.20
70745;BME280;59284;31.390;34.904;2022-09-09T12:30:31;94723.22;;;45.39;80.48
70745;BME280;59284;31.390;34.904;2022-09-09T12:33:06;94719.94;;;41.07;89.99
70745;BME280;59284;31.390;34.904;2022-09-09T12:35:34;94712.72;;;44.16;80.55
70745;BME280;59284;31.390;34.904;2022-09-09T12:38:04;94716.94;;;41.58;80.18
70745;BME280;59284;31.390;34.904;2022-09-09T12:40:33;94707.75;;;39.52;84.73
70745;BME280;59284;31.390;34.904;2022-09-09T12:43:01;94714.09;;;42.17;77.49
70745;BME280;59284;31.390;34.904;2022-09-09T12:45:40;94702.56;;;40.25;83.27
70745;BME280;59284;31.390;34.904;2022-09-09T12:48:08;94701.13;;;38.43;90.10
70745;BME280;59284;31.390;34.904;2022-09-09T12:50:49;94710.09;;;42.46;78.12
70745;BME280;59284;31.390;34.904;2022-09-09T12:53:23;94703.28;;;43.13;68.63
70745;BME280;59284;31.390;34.904;2022-09-09T12:56:03;94696.53;;;41.26;74.07
70745;BME280;59284;31.390;34.904;2022-09-09T12:58:30;94704.38;;;42.88;71.01
70745;BME280;59284;31.390;34.904;2022-09-09T13:01:01;94698.84;;;41.55;71.02
70745;BME280;59284;31.390;34.904;2022-09-09T13:03:31;94698.50;;;40.78;70.73
70745;BME280;59284;31.390;34.904;2022-09-09T13:06:09;94699.50;;;39.61;77.29
70745;BME280;59284;31.390;34.904;2022-09-09T13:08:37;94693.88;;;40.21;71.41
70745;BME280;59284;31.390;34.904;2022-09-09T13:11:07;94696.06;;;41.33;69.72
70745;BME280;59284;31.390;34.904;2022-09-09T13:13:39;94683.00;;;40.21;72.42
70745;BME280;59284;31.390;34.904;2022-09-09T13:16:18;94679.28;;;38.81;71.33
70745;BME280;59284;31.390;34.904;2022-09-09T13:18:45;94692.03;;;42.21;69.97
70745;BME280;59284;31.390;34.904;2022-09-09T13:21:12;94687.47;;;41.62;66.87
70745;BME280;59284;31.390;34.904;2022-09-09T13:23:38;94688.97;;;39.99;73.24
70745;BME280;59284;31.390;34.904;2022-09-09T13:26:24;94683.59;;;39.54;70.87
70745;BME280;59284;31.390;34.904;2022-09-09T13:28:54;94681.06;;;39.70;72.58
70745;BME280;59284;31.390;34.904;2022-09-09T13:31:38;94669.31;;;38.73;72.37
70745;BME280;59284;31.390;34.904;2022-09-09T13:34:27;94669.56;;;39.55;72.01
70745;BME280;59284;31.390;34.904;2022-09-09T13:36:59;94666.47;;;38.18;74.12
70745;BME280;59284;31.390;34.904;2022-09-09T13:39:29;94674.66;;;38.03;74.45
70745;BME280;59284;31.390;34.904;2022-09-09T13:41:54;94671.69;;;39.05;73.56
70745;BME280;59284;31.390;34.904;2022-09-09T13:44:26;94672.69;;;36.89;80.94
70745;BME280;59284;31.390;34.904;2022-09-09T13:47:01;94664.94;;;37.97;79.76
70745;BME280;59284;31.390;34.904;2022-09-09T13:49:29;94668.50;;;36.31;84.70
70745;BME280;59284;31.390;34.904;2022-09-09T13:52:24;94667.06;;;37.78;77.79
70745;BME280;59284;31.390;34.904;2022-09-09T13:54:52;94666.50;;;37.59;77.73
70745;BME280;59284;31.390;34.904;2022-09-09T13:57:23;94664.63;;;36.23;80.44
70745;BME280;59284;31.390;34.904;2022-09-09T13:59:52;94661.88;;;37.36;80.45
70745;BME280;59284;31.390;34.904;2022-09-09T14:02:18;94664.84;;;36.02;85.33
70745;BME280;59284;31.390;34.904;2022-09-09T14:04:44;94670.66;;;37.07;80.28
70745;BME280;59284;31.390;34.904;2022-09-09T14:07:17;94661.28;;;36.94;80.29
70745;BME280;59284;31.390;34.904;2022-09-09T14:09:43;94673.34;;;35.13;91.90
70745;BME280;59284;31.390;34.904;2022-09-09T14:12:13;94663.78;;;36.08;87.76
70745;BME280;59284;31.390;34.904;2022-09-09T14:14:41;94668.41;;;36.17;86.66
70745;BME280;59284;31.390;34.904;2022-09-09T14:17:08;94673.56;;;35.87;88.77
70745;BME280;59284;31.390;34.904;2022-09-09T14:19:36;94678.31;;;34.66;93.79
70745;BME280;59284;31.390;34.904;2022-09-09T14:22:02;94665.34;;;34.91;96.25
70745;BME280;59284;31.390;34.904;2022-09-09T14:24:28;94665.03;;;35.98;93.75
70745;BME280;59284;31.390;34.904;2022-09-09T14:26:55;94681.03;;;36.52;90.92
70745;BME280;59284;31.390;34.904;2022-09-09T14:29:21;94686.75;;;34.86;97.88
70745;BME280;59284;31.390;34.904;2022-09-09T14:31:47;94677.63;;;34.92;100.00
70745;BME280;59284;31.390;34.904;2022-09-09T14:34:12;94679.44;;;35.77;99.17
70745;BME280;59284;31.390;34.904;2022-09-09T14:36:40;94682.19;;;33.94;100.00
70745;BME280;59284;31.390;34.904;2022-09-09T14:39:07;94682.41;;;33.56;100.00
70745;BME280;59284;31.390;34.904;2022-09-09T14:41:32;94678.22;;;33.55;100.00
70745;BME280;59284;31.390;34.904;2022-09-09T14:43:58;94680.25;;;33.30;100.00
70745;BME280;59284;31.390;34.904;2022-09-09T14:46:25;94684.69;;;33.23;100.00
70745;BME280;59284;31.390;34.904;2022-09-09T14:48:52;94687.22;;;33.27;100.00
70745;BME280;59284;31.390;34.904;2022-09-09T14:51:23;94689.25;;;33.36;100.00
70745;BME280;59284;31.390;34.904;2022-09-09T14:53:56;94699.22;;;31.87;100.00
70745;BME280;59284;31.390;34.904;2022-09-09T14:56:29;94695.22;;;32.21;100.00
70745;BME280;59284;31.390;34.904;2022-09-09T14:58:57;94703.00;;;31.49;100.00
70745;BME280;59284;31.390;34.904;2022-09-09T15:01:24;94697.84;;;31.83;100.00
70745;BME280;59284;31.390;34.904;2022-09-09T15:04:00;94684.22;;;31.90;100.00
70745;BME280;59284;31.390;34.904;2022-09-09T15:06:31;94706.84;;;30.71;100.00
70745;BME280;59284;31.390;34.904;2022-09-09T15:08:59;94711.00;;;30.55;100.00
70745;BME280;59284;31.390;34.904;2022-09-09T15:11:30;94704.16;;;31.76;100.00
70745;BME280;59284;31.390;34.904;2022-09-09T15:13:57;94707.69;;;31.00;100.00
70745;BME280;59284;31.390;34.904;2022-09-09T15:16:26;94701.84;;;29.85;100.00
70745;BME280;59284;31.390;34.904;2022-09-09T15:18:55;94710.38;;;30.16;100.00
70745;BME280;59284;31.390;34.904;2022-09-09T15:21:23;94712.16;;;29.63;100.00
70745;BME280;59284;31.390;34.904;2022-09-09T15:23:50;94707.16;;;29.26;100.00
70745;BME280;59284;31.390;34.904;2022-09-09T15:26:17;94705.72;;;29.61;100.00
70745;BME280;59284;31.390;34.904;2022-09-09T15:28:44;94715.91;;;28.53;100.00
70745;BME280;59284;31.390;34.904;2022-09-09T15:31:24;94701.50;;;28.74;100.00
70745;BME280;59284;31.390;34.904;2022-09-09T15:34:02;94709.91;;;27.59;100.00
70745;BME280;59284;31.390;34.904;2022-09-09T15:36:37;94696.63;;;27.18;100.00
70745;BME280;59284;31.390;34.904;2022-09-09T15:39:05;94704.16;;;27.27;100.00
70745;BME280;59284;31.390;34.904;2022-09-09T15:41:31;94698.66;;;27.03;100.00
70745;BME280;59284;31.390;34.904;2022-09-09T15:43:57;94700.69;;;26.92;100.00
70745;BME280;59284;31.390;34.904;2022-09-09T15:46:34;94687.72;;;26.46;100.00
70745;BME280;59284;31.390;34.904;2022-09-09T15:49:21;94693.63;;;26.17;100.00
70745;BME280;59284;31.390;34.904;2022-09-09T15:51:58;94681.53;;;25.98;100.00